Time;durP1;ratioP1;P1;durP2;ratioP2;P2;SDS_P1;SDS_P2;PMS_P1;PMS_P2;Temp;Humidity;BMP_temperature;BMP_pressure;BME280_temperature;BME280_humidity;BME280_pressure;Samples;Min_cycle;Max_cycle;Signal;HPM_P1;HPM_P2
2022/05/26 00:00:37;;;;;;;2.63;0.95;;;;;;;11.57;100.00;99437.06;5137078;27;20483;-77
2022/05/26 00:03:04;;;;;;;1.58;0.90;;;;;;;11.54;100.00;99425.72;5133339;27;20486;-78
2022/05/26 00:05:31;;;;;;;2.88;0.90;;;;;;;11.50;100.00;99439.69;5139070;27;20046;-78
2022/05/26 00:07:58;;;;;;;3.15;0.77;;;;;;;11.73;100.00;99446.09;5140042;27;20042;-77
2022/05/26 00:10:25;;;;;;;2.28;1.02;;;;;;;11.73;100.00;99427.03;5144444;27;20050;-77
2022/05/26 00:12:52;;;;;;;5.03;1.10;;;;;;;11.75;100.00;99428.56;5142580;27;20050;-78
2022/05/26 00:15:18;;;;;;;1.92;1.00;;;;;;;11.92;100.00;99447.44;5136876;27;20043;-78
2022/05/26 00:17:45;;;;;;;3.08;1.30;;;;;;;12.06;100.00;99453.97;5137744;27;20039;-78
2022/05/26 00:20:12;;;;;;;1.98;0.88;;;;;;;12.11;100.00;99455.09;5140317;27;20051;-78
2022/05/26 00:22:39;;;;;;;1.42;0.80;;;;;;;12.18;100.00;99457.94;5135081;27;20054;-78
2022/05/26 00:25:08;;;;;;;3.53;0.75;;;;;;;12.19;100.00;99454.16;5144401;27;20059;-78
2022/05/26 00:27:34;;;;;;;1.45;1.00;;;;;;;12.24;100.00;99451.72;5149544;27;20051;-78
2022/05/26 00:30:00;;;;;;;1.60;0.90;;;;;;;12.37;100.00;99451.03;5147629;27;20116;-78
2022/05/26 00:32:27;;;;;;;2.58;1.10;;;;;;;12.30;100.00;99444.66;5154398;27;20046;-78
2022/05/26 00:34:53;;;;;;;3.53;0.90;;;;;;;12.42;100.00;99456.78;5147164;27;20406;-78
2022/05/26 00:37:20;;;;;;;5.70;1.40;;;;;;;12.35;100.00;99442.22;5142935;27;20100;-77
2022/05/26 00:39:46;;;;;;;2.90;0.98;;;;;;;12.44;100.00;99440.25;5147151;27;20034;-78
2022/05/26 00:42:14;;;;;;;2.83;1.20;;;;;;;12.45;100.00;99444.63;5143565;27;20494;-78
2022/05/26 00:44:42;;;;;;;4.10;1.02;;;;;;;12.39;100.00;99447.09;5146736;27;20505;-77
2022/05/26 00:47:12;;;;;;;1.35;0.80;;;;;;;12.37;100.00;99449.19;5136039;27;20440;-78
2022/05/26 00:49:43;;;;;;;1.05;0.95;;;;;;;12.33;100.00;99441.53;5149761;27;20039;-77
2022/05/26 00:52:14;;;;;;;2.15;0.77;;;;;;;12.43;100.00;99454.91;5150043;27;20055;-78
2022/05/26 00:54:41;;;;;;;2.65;1.02;;;;;;;12.44;100.00;99460.16;5144474;27;20134;-78
2022/05/26 00:57:14;;;;;;;9.88;1.25;;;;;;;12.42;100.00;99440.44;5152903;27;20054;-78
2022/05/26 00:59:48;;;;;;;1.10;1.00;;;;;;;12.47;100.00;99445.31;5139751;27;20047;-78
2022/05/26 01:02:18;;;;;;;7.68;2.65;;;;;;;12.27;100.00;99423.22;5141146;27;20061;-78
2022/05/26 01:04:51;;;;;;;1.13;0.90;;;;;;;12.45;100.00;99459.13;5149952;27;20046;-78
2022/05/26 01:07:22;;;;;;;2.13;0.95;;;;;;;12.45;100.00;99453.69;5145699;27;20116;-78
2022/05/26 01:09:48;;;;;;;3.35;1.00;;;;;;;12.51;100.00;99452.06;5143199;27;20050;-79
2022/05/26 01:12:15;;;;;;;2.55;0.80;;;;;;;12.63;97.03;99450.56;5153429;27;20489;-78
2022/05/26 01:14:47;;;;;;;3.00;0.70;;;;;;;12.66;99.39;99452.91;5146667;27;20047;-78
2022/05/26 01:17:24;;;;;;;2.25;0.93;;;;;;;12.68;100.00;99450.81;5151556;27;20050;-78
2022/05/26 01:20:24;;;;;;;5.68;0.90;;;;;;;12.64;100.00;99451.38;5147689;27;20046;-78
2022/05/26 01:23:24;;;;;;;1.63;0.90;;;;;;;12.38;100.00;99431.78;5149919;27;20054;-78
2022/05/26 01:26:22;;;;;;;0.70;0.70;;;;;;;12.55;100.00;99443.31;5142543;27;20065;-78
2022/05/26 01:29:12;;;;;;;2.40;1.10;;;;;;;12.51;100.00;99442.00;5118633;27;20467;-78
2022/05/26 01:31:46;;;;;;;1.50;0.95;;;;;;;12.43;100.00;99435.81;5150456;27;20039;-78
2022/05/26 01:34:21;;;;;;;0.93;0.80;;;;;;;12.43;100.00;99430.38;5141755;27;20102;-78
2022/05/26 01:36:54;;;;;;;0.85;0.85;;;;;;;12.47;100.00;99431.69;5138428;27;20050;-78
2022/05/26 01:39:25;;;;;;;2.05;0.82;;;;;;;12.50;100.00;99439.47;5146224;27;20070;-78
2022/05/26 01:42:06;;;;;;;1.35;0.93;;;;;;;12.39;100.00;99428.03;5141104;27;20416;-78
2022/05/26 01:44:45;;;;;;;4.93;1.10;;;;;;;12.32;100.00;99428.97;5148978;27;20047;-79
2022/05/26 01:47:24;;;;;;;1.15;1.02;;;;;;;12.28;100.00;99444.00;5141993;27;20047;-78
2022/05/26 01:49:56;;;;;;;0.90;0.90;;;;;;;12.24;100.00;99446.28;5147776;27;20047;-78
2022/05/26 01:52:29;;;;;;;9.02;0.88;;;;;;;12.16;100.00;99447.22;5134550;27;20043;-78
2022/05/26 01:55:03;;;;;;;1.02;0.70;;;;;;;12.14;100.00;99446.56;5145362;27;20058;-78
2022/05/26 01:57:38;;;;;;;1.75;1.08;;;;;;;12.03;100.00;99442.41;5137136;27;20046;-78
2022/05/26 02:00:08;;;;;;;4.22;0.90;;;;;;;11.94;100.00;99440.81;5143840;27;20472;-78
2022/05/26 02:02:40;;;;;;;1.10;0.70;;;;;;;11.85;100.00;99436.47;5151178;27;20492;-78
2022/05/26 02:05:11;;;;;;;1.23;0.60;;;;;;;11.90;100.00;99447.63;5151744;27;20050;-78
2022/05/26 02:07:43;;;;;;;1.23;0.80;;;;;;;11.80;100.00;99437.03;5152657;27;20041;-78
2022/05/26 02:10:14;;;;;;;1.30;0.85;;;;;;;11.77;100.00;99448.31;5142711;27;20050;-78
2022/05/26 02:12:44;;;;;;;1.80;0.80;;;;;;;11.74;100.00;99453.25;5142289;27;20397;-77
2022/05/26 02:15:18;;;;;;;0.60;0.60;;;;;;;11.59;100.00;99448.66;5142349;27;20051;-78
2022/05/26 02:17:48;;;;;;;2.88;1.00;;;;;;;11.51;100.00;99454.97;5136505;27;20047;-78
2022/05/26 02:20:19;;;;;;;0.82;0.80;;;;;;;11.45;100.00;99452.16;5141727;27;20058;-78
2022/05/26 02:22:50;;;;;;;4.82;0.90;;;;;;;11.37;100.00;99455.81;5146571;27;20042;-78
2022/05/26 02:25:19;;;;;;;2.55;1.00;;;;;;;11.33;100.00;99451.75;5144511;27;20046;-78
2022/05/26 02:27:48;;;;;;;3.50;0.90;;;;;;;11.24;100.00;99445.53;5142490;27;20046;-78
2022/05/26 02:30:15;;;;;;;1.67;0.90;;;;;;;11.14;100.00;99443.06;5149728;27;20043;-78
2022/05/26 02:32:46;;;;;;;0.68;0.68;;;;;;;11.25;100.00;99449.09;5141125;27;20046;-78
2022/05/26 02:35:16;;;;;;;1.40;0.90;;;;;;;11.21;100.00;99450.50;5143932;27;20085;-78
2022/05/26 02:37:46;;;;;;;1.40;0.80;;;;;;;11.11;100.00;99456.16;5141710;27;20043;-78
2022/05/26 02:40:13;;;;;;;0.73;0.68;;;;;;;11.19;100.00;99445.22;5151834;27;20537;-78
2022/05/26 02:42:47;;;;;;;0.90;0.68;;;;;;;11.14;100.00;99447.63;5146113;27;20043;-78
2022/05/26 02:45:14;;;;;;;0.95;0.68;;;;;;;11.04;100.00;99434.28;5150561;27;20069;-78
2022/05/26 02:47:51;;;;;;;1.95;0.70;;;;;;;10.92;100.00;99447.47;5145027;27;20242;-78
2022/05/26 02:50:35;;;;;;;1.38;0.80;;;;;;;10.95;100.00;99451.69;5133948;27;20047;-78
2022/05/26 02:53:07;;;;;;;1.30;0.80;;;;;;;10.86;100.00;99450.91;5146857;27;20054;-78
2022/05/26 02:55:49;;;;;;;2.00;0.60;;;;;;;10.79;100.00;99449.91;5144471;27;20050;-78
2022/05/26 02:58:24;;;;;;;1.33;0.68;;;;;;;10.78;100.00;99453.69;5141605;27;20047;-78
2022/05/26 03:00:59;;;;;;;0.70;0.70;;;;;;;10.78;100.00;99459.13;5150975;27;20130;-78
2022/05/26 03:03:29;;;;;;;0.80;0.80;;;;;;;10.77;100.00;99460.13;5140607;27;20062;-78
2022/05/26 03:06:05;;;;;;;5.90;0.80;;;;;;;10.77;100.00;99458.25;5139691;27;20050;-78
2022/05/26 03:08:36;;;;;;;2.25;0.88;;;;;;;10.80;100.00;99448.91;5147043;27;20047;-78
2022/05/26 03:11:07;;;;;;;2.15;0.60;;;;;;;10.81;100.00;99439.72;5142911;27;20039;-78
2022/05/26 03:13:34;;;;;;;2.55;0.70;;;;;;;10.91;100.00;99455.81;5148345;27;20042;-78
2022/05/26 03:16:01;;;;;;;5.00;0.98;;;;;;;10.97;100.00;99444.19;5136306;27;20055;-78
2022/05/26 03:18:27;;;;;;;3.45;0.70;;;;;;;11.07;100.00;99449.41;5134121;27;20051;-78
2022/05/26 03:20:54;;;;;;;2.10;0.52;;;;;;;11.10;100.00;99452.59;5144354;27;20042;-78
2022/05/26 03:23:21;;;;;;;2.20;1.27;;;;;;;11.16;100.00;99451.03;5144249;27;20047;-78
2022/05/26 03:25:48;;;;;;;3.85;0.60;;;;;;;11.10;100.00;99444.44;5151143;27;20054;-78
2022/05/26 03:28:15;;;;;;;1.48;0.80;;;;;;;11.08;100.00;99456.53;5143458;27;20489;-78
2022/05/26 03:30:41;;;;;;;3.80;0.65;;;;;;;11.21;100.00;99459.50;5150961;27;20043;-78
2022/05/26 03:33:08;;;;;;;1.48;0.70;;;;;;;11.24;100.00;99455.56;5139507;27;20047;-78
2022/05/26 03:41:09;;;;;;;2.20;0.77;;;;;;;11.38;100.00;99459.38;5140935;27;20043;-78
2022/05/26 03:43:39;;;;;;;1.25;0.60;;;;;;;11.31;100.00;99451.94;5137774;27;20047;-78
2022/05/26 03:46:06;;;;;;;3.30;0.63;;;;;;;11.40;100.00;99465.50;5148415;27;20063;-78
2022/05/26 03:48:33;;;;;;;1.02;0.70;;;;;;;11.40;100.00;99469.03;5131678;27;20054;-78
2022/05/26 03:51:00;;;;;;;1.65;0.60;;;;;;;11.37;100.00;99469.41;5145260;27;20041;-78
2022/05/26 03:53:27;;;;;;;1.13;0.65;;;;;;;11.40;100.00;99474.50;5148982;27;20051;-78
2022/05/26 03:55:53;;;;;;;0.75;0.75;;;;;;;11.44;100.00;99477.69;5142831;27;20034;-78
2022/05/26 03:58:21;;;;;;;3.30;0.52;;;;;;;11.44;100.00;99470.38;5140105;27;20058;-78
2022/05/26 04:00:48;;;;;;;0.90;0.57;;;;;;;11.46;100.00;99454.69;5138213;27;20059;-78
2022/05/26 04:03:14;;;;;;;1.95;0.65;;;;;;;11.65;100.00;99480.59;5137120;27;20129;-78
2022/05/26 04:05:41;;;;;;;1.15;0.50;;;;;;;11.70;100.00;99490.91;5146661;27;20053;-78
2022/05/26 04:08:08;;;;;;;0.63;0.50;;;;;;;11.81;100.00;99486.91;5143362;27;20074;-77
2022/05/26 04:10:34;;;;;;;1.45;0.50;;;;;;;11.92;100.00;99491.88;5150788;27;20053;-77
2022/05/26 04:13:01;;;;;;;2.20;0.70;;;;;;;12.13;100.00;99496.63;5142695;27;20039;-77
2022/05/26 04:15:29;;;;;;;0.63;0.63;;;;;;;12.23;100.00;99495.53;5148751;27;20046;-78
2022/05/26 04:17:55;;;;;;;2.05;0.60;;;;;;;12.32;100.00;99497.13;5139956;27;20043;-78
2022/05/26 04:20:24;;;;;;;1.38;0.60;;;;;;;12.37;100.00;99505.56;5141325;27;20338;-78
2022/05/26 04:22:50;;;;;;;3.03;0.80;;;;;;;12.48;100.00;99507.84;5146021;27;20505;-78
2022/05/26 04:25:18;;;;;;;0.60;0.50;;;;;;;12.55;100.00;99500.56;5138543;27;20043;-78
2022/05/26 04:27:45;;;;;;;0.63;0.60;;;;;;;12.55;100.00;99488.81;5139974;27;20479;-77
2022/05/26 04:30:13;;;;;;;0.60;0.50;;;;;;;12.72;99.59;99511.28;5137582;27;20501;-77
2022/05/26 04:32:42;;;;;;;1.15;0.52;;;;;;;12.89;97.52;99509.19;5143423;27;20046;-77
2022/05/26 04:35:10;;;;;;;1.77;0.50;;;;;;;13.01;95.93;99507.66;5137263;27;20089;-77
2022/05/26 04:37:37;;;;;;;1.92;0.82;;;;;;;13.10;93.73;99506.50;5141541;27;20150;-77
2022/05/26 04:40:05;;;;;;;1.35;0.40;;;;;;;13.02;92.12;99487.53;5135513;27;20416;-78
2022/05/26 04:42:32;;;;;;;1.75;0.50;;;;;;;13.21;90.42;99507.03;5136505;27;20049;-78
2022/05/26 04:44:59;;;;;;;0.50;0.50;;;;;;;13.35;89.59;99519.78;5139490;27;20046;-77
2022/05/26 04:47:26;;;;;;;3.40;0.55;;;;;;;13.33;90.15;99515.56;5135605;27;20038;-77
2022/05/26 04:49:54;;;;;;;2.95;0.60;;;;;;;13.51;88.19;99520.59;5151281;27;20414;-77
2022/05/26 04:52:22;;;;;;;1.00;0.60;;;;;;;13.55;89.66;99522.75;5146129;27;20039;-77
2022/05/26 04:54:49;;;;;;;2.63;0.60;;;;;;;13.60;89.31;99523.00;5148947;27;20046;-77
2022/05/26 04:57:19;;;;;;;3.92;0.60;;;;;;;13.46;90.51;99515.72;5131209;27;20047;-77
2022/05/26 04:59:46;;;;;;;0.47;0.40;;;;;;;13.72;89.29;99517.84;5139626;27;20043;-77
2022/05/26 05:02:14;;;;;;;2.30;0.50;;;;;;;14.36;85.43;99526.94;5130444;27;20502;-77
2022/05/26 05:04:42;;;;;;;3.15;0.90;;;;;;;15.00;77.21;99522.25;5142672;27;20051;-78
2022/05/26 05:07:10;;;;;;;1.63;0.60;;;;;;;15.71;76.03;99523.66;5147249;27;20051;-77
2022/05/26 05:09:37;;;;;;;1.50;1.35;;;;;;;16.29;73.03;99517.56;5140141;27;20115;-77
2022/05/26 05:12:06;;;;;;;2.60;0.60;;;;;;;16.58;69.42;99523.63;5136871;27;20054;-77
2022/05/26 05:14:37;;;;;;;1.60;0.47;;;;;;;17.15;66.41;99532.09;5148285;27;20043;-78
2022/05/26 05:17:04;;;;;;;1.13;0.55;;;;;;;17.32;66.56;99529.66;5134164;27;20805;-78
2022/05/26 05:19:31;;;;;;;0.95;0.40;;;;;;;17.03;66.18;99528.34;5148136;27;20046;-78
2022/05/26 05:22:02;;;;;;;1.80;0.60;;;;;;;16.57;68.90;99539.22;5142707;27;20047;-77
2022/05/26 05:24:34;;;;;;;2.95;0.55;;;;;;;16.15;69.79;99543.31;5142952;27;20057;-77
2022/05/26 05:27:06;;;;;;;3.15;0.80;;;;;;;15.84;75.88;99531.94;5142651;27;20050;-78
2022/05/26 05:29:36;;;;;;;2.17;0.60;;;;;;;15.58;74.11;99546.41;5141638;27;20050;-77
2022/05/26 05:32:09;;;;;;;1.77;0.60;;;;;;;15.39;74.67;99556.28;5137276;27;20046;-78
2022/05/26 05:34:39;;;;;;;1.35;0.47;;;;;;;15.30;75.34;99563.00;5139942;27;20054;-78
2022/05/26 05:37:06;;;;;;;1.98;0.45;;;;;;;15.26;75.26;99561.72;5145716;27;20051;-78
2022/05/26 05:39:34;;;;;;;1.45;0.60;;;;;;;15.32;76.58;99572.69;5147755;27;20051;-78
2022/05/26 05:42:02;;;;;;;0.50;0.50;;;;;;;15.30;74.26;99569.31;5141959;27;20589;-78
2022/05/26 05:44:29;;;;;;;8.18;0.60;;;;;;;15.44;74.17;99569.38;5145206;27;20047;-77
2022/05/26 05:46:57;;;;;;;4.15;0.50;;;;;;;15.38;73.08;99566.38;5143292;27;20046;-78
2022/05/26 05:49:25;;;;;;;4.78;0.70;;;;;;;15.50;78.76;99566.63;5153563;27;20042;-78
2022/05/26 05:51:52;;;;;;;1.00;0.28;;;;;;;15.49;75.88;99554.00;5142201;27;20103;-77
2022/05/26 05:54:20;;;;;;;3.80;0.70;;;;;;;15.45;73.72;99573.81;5135243;27;20474;-78
2022/05/26 05:56:48;;;;;;;1.40;0.50;;;;;;;15.46;73.17;99565.38;5146933;27;20413;-78
2022/05/26 05:59:15;;;;;;;1.45;0.80;;;;;;;15.40;75.74;99561.56;5149666;27;20050;-77
2022/05/26 06:01:42;;;;;;;1.17;0.77;;;;;;;15.45;76.07;99566.41;5139654;27;20091;-78
2022/05/26 06:04:09;;;;;;;0.98;0.63;;;;;;;15.39;75.28;99575.47;5144054;27;20433;-78
2022/05/26 06:06:37;;;;;;;4.20;0.80;;;;;;;15.30;74.35;99579.44;5142002;27;20358;-77
2022/05/26 06:09:04;;;;;;;2.50;0.52;;;;;;;15.30;75.25;99587.66;5135346;27;20047;-77
2022/05/26 06:11:32;;;;;;;2.67;0.68;;;;;;;15.06;75.30;99576.19;5143575;27;20038;-78
2022/05/26 06:14:00;;;;;;;1.70;0.80;;;;;;;15.19;74.34;99581.72;5136855;27;20051;-78
2022/05/26 06:16:27;;;;;;;2.45;0.55;;;;;;;15.36;77.72;99586.84;5138441;27;20051;-78
2022/05/26 06:18:54;;;;;;;1.42;0.60;;;;;;;15.45;78.23;99587.50;5150487;27;20443;-78
2022/05/26 06:21:20;;;;;;;1.35;0.35;;;;;;;15.40;75.92;99604.53;5135112;27;20186;-78
2022/05/26 06:23:47;;;;;;;0.80;0.63;;;;;;;15.57;77.84;99602.28;5133867;27;20355;-78
2022/05/26 06:26:13;;;;;;;3.83;0.85;;;;;;;15.51;75.08;99600.38;5152045;27;20119;-78
2022/05/26 06:31:28;;;;;;;0.93;0.57;;;;;;;15.65;75.81;99603.97;5147573;27;20057;-78
2022/05/26 06:39:25;;;;;;;2.35;0.60;;;;;;;16.03;76.22;99592.47;5138825;27;20050;-78
2022/05/26 06:42:07;;;;;;;2.47;0.47;;;;;;;16.15;73.89;99598.16;5140977;27;20096;-78
2022/05/26 06:44:37;;;;;;;1.65;0.40;;;;;;;16.30;72.38;99608.94;5141915;27;20047;-77
2022/05/26 06:47:07;;;;;;;1.77;0.60;;;;;;;16.47;70.15;99607.44;5146333;27;20057;-77
2022/05/26 06:49:34;;;;;;;;;;;;;;;16.71;69.92;99611.44;5136448;27;20074;-77
2022/05/26 06:52:02;;;;;;;3.42;0.47;;;;;;;16.68;66.60;99620.09;5140890;27;20417;-78
2022/05/26 06:54:31;;;;;;;0.93;0.40;;;;;;;16.67;66.98;99623.03;5137964;27;20046;-78
2022/05/26 06:56:57;;;;;;;1.27;0.70;;;;;;;16.78;68.78;99616.88;5142165;27;20489;-78
2022/05/26 06:59:24;;;;;;;0.68;0.35;;;;;;;16.97;68.12;99628.94;5145115;27;20050;-78
2022/05/26 07:01:51;;;;;;;1.90;0.50;;;;;;;17.09;67.28;99629.09;5142267;27;20047;-78
2022/05/26 07:04:19;;;;;;;1.95;0.82;;;;;;;16.92;64.83;99629.56;5136338;27;20119;-78
2022/05/26 07:06:48;;;;;;;1.27;0.50;;;;;;;17.22;64.91;99625.44;5135735;27;20397;-79
2022/05/26 07:09:15;;;;;;;0.95;0.60;;;;;;;17.63;64.20;99640.69;5152338;27;20458;-79
2022/05/26 07:11:41;;;;;;;2.67;0.60;;;;;;;17.54;63.75;99644.75;5153205;27;20057;-78
2022/05/26 07:14:08;;;;;;;1.92;0.60;;;;;;;17.61;61.59;99638.16;5151995;27;20383;-79
2022/05/26 07:16:34;;;;;;;3.47;0.70;;;;;;;17.85;59.59;99616.47;5153111;27;20078;-78
2022/05/26 07:19:01;;;;;;;4.55;0.65;;;;;;;18.17;59.47;99638.47;5151003;27;20103;-79
2022/05/26 07:21:29;;;;;;;5.35;0.60;;;;;;;17.75;58.91;99654.59;5147150;27;20051;-78
2022/05/26 07:23:55;;;;;;;4.50;0.52;;;;;;;17.73;59.93;99652.06;5142652;27;20043;-80
2022/05/26 07:27:01;;;;;;;1.45;0.50;;;;;;;17.65;60.87;99660.56;5132422;27;20047;-78
2022/05/26 07:29:28;;;;;;;6.40;0.95;;;;;;;17.69;62.23;99650.84;5132513;27;20100;-80
2022/05/26 07:31:55;;;;;;;6.05;0.52;;;;;;;17.80;60.79;99643.78;5131175;27;20051;-78
2022/05/26 07:34:21;;;;;;;0.60;0.50;;;;;;;17.84;60.51;99658.78;5141241;27;20447;-78
2022/05/26 07:42:21;;;;;;;1.00;0.40;;;;;;;17.78;60.94;99668.75;5146210;27;20455;-79
2022/05/26 07:44:51;;;;;;;0.70;0.40;;;;;;;17.88;62.50;99665.53;5139297;27;20043;-79
2022/05/26 07:47:18;;;;;;;1.73;0.80;;;;;;;17.90;61.98;99665.31;5141906;27;20043;-79
2022/05/26 07:49:47;;;;;;;0.88;0.50;;;;;;;17.66;61.79;99660.34;5142001;27;20517;-78
2022/05/26 07:52:16;;;;;;;1.50;0.60;;;;;;;17.57;61.51;99677.31;5139155;27;20457;-78
2022/05/26 07:54:43;;;;;;;1.42;0.30;;;;;;;17.43;63.31;99673.78;5139719;27;20046;-78
2022/05/26 07:57:18;;;;;;;1.92;0.60;;;;;;;17.29;63.00;99673.00;5150699;27;20039;-79
2022/05/26 07:59:46;;;;;;;1.98;0.40;;;;;;;17.36;63.23;99683.94;5152324;27;20129;-78
2022/05/26 08:02:12;;;;;;;5.30;0.45;;;;;;;17.13;63.13;99685.28;5142731;27;20482;-78
2022/05/26 08:21:38;;;;;;;3.47;0.60;;;;;;;17.13;64.26;99696.25;5148459;27;20049;-78
2022/05/26 08:24:05;;;;;;;3.45;0.70;;;;;;;17.13;63.13;99697.13;5132882;27;20051;-77
2022/05/26 08:26:31;;;;;;;3.38;0.80;;;;;;;17.07;63.27;99697.13;5150594;27;20050;-78
2022/05/26 08:28:58;;;;;;;2.47;0.60;;;;;;;17.13;62.56;99697.13;5150519;27;20054;-77
2022/05/26 08:31:26;;;;;;;2.03;0.52;;;;;;;17.13;62.00;99701.75;5144674;27;20039;-78
2022/05/26 08:33:53;;;;;;;3.22;0.55;;;;;;;16.95;64.21;99700.53;5134198;27;20051;-77
2022/05/26 08:36:24;;;;;;;3.38;0.70;;;;;;;16.99;62.88;99681.72;5137950;27;20054;-77
2022/05/26 08:38:53;;;;;;;2.83;0.60;;;;;;;16.96;62.50;99671.16;5147172;27;20600;-77
2022/05/26 08:41:23;;;;;;;0.95;0.50;;;;;;;17.19;63.33;99692.66;5140376;27;20067;-77
2022/05/26 08:43:53;;;;;;;;;;;;;;;17.17;61.95;99706.59;5137842;27;20501;-77
2022/05/26 08:46:20;;;;;;;;;;;;;;;17.47;63.30;99708.84;5144413;27;19919;-77
2022/05/26 08:48:52;;;;;;;2.85;0.45;;;;;;;17.48;61.68;99688.56;5144670;27;19919;-78
2022/05/26 08:51:25;;;;;;;1.58;0.55;;;;;;;17.58;61.26;99688.09;5146932;27;20039;-78
2022/05/26 08:53:56;;;;;;;2.15;0.50;;;;;;;17.82;60.15;99703.00;5147385;27;20043;-78
2022/05/26 08:56:26;;;;;;;0.25;0.25;;;;;;;17.81;59.39;99690.31;5145730;27;20050;-77
2022/05/26 08:58:57;;;;;;;;;;;;;;;17.83;59.27;99712.09;5143451;27;20054;-77
2022/05/26 09:01:32;;;;;;;2.38;0.60;;;;;;;17.75;60.02;99704.09;5151895;27;19926;-78
2022/05/26 09:03:58;;;;;;;2.90;0.75;;;;;;;17.77;60.20;99704.72;5142440;27;20043;-77
2022/05/26 09:06:25;;;;;;;4.43;0.80;;;;;;;17.60;60.71;99707.97;5149214;27;20486;-77
2022/05/26 09:14:28;;;;;;;3.90;1.00;;;;;;;18.20;61.93;99710.44;5144683;27;20508;-77
2022/05/26 09:37:07;;;;;;;2.08;0.73;;;;;;;19.08;59.62;99707.84;5153337;27;20077;-79
2022/05/26 09:39:37;;;;;;;2.53;1.38;;;;;;;19.05;57.50;99708.31;5154698;27;20047;-79
2022/05/26 09:42:06;;;;;;;;;;;;;;;18.65;59.27;99719.63;5154585;27;20091;-78
2022/05/26 09:44:48;;;;;;;2.13;0.80;;;;;;;18.58;60.45;99719.69;5154212;27;19963;-78
2022/05/26 09:47:33;;;;;;;4.50;0.80;;;;;;;18.59;61.64;99713.09;5154589;27;20501;-77
2022/05/26 09:50:01;;;;;;;1.27;0.60;;;;;;;18.46;61.25;99713.25;5150790;27;20072;-78
2022/05/26 09:52:40;;;;;;;3.45;0.70;;;;;;;18.65;58.09;99719.63;5133125;27;20047;-77
2022/05/26 09:55:17;;;;;;;2.42;0.65;;;;;;;18.96;60.87;99732.53;5146662;27;20045;-77
2022/05/26 09:57:45;;;;;;;1.08;0.70;;;;;;;18.83;57.23;99722.44;5139760;27;20039;-78
2022/05/26 10:00:31;;;;;;;4.28;0.90;;;;;;;19.00;57.32;99705.38;5140378;27;20076;-77
2022/05/26 10:03:00;;;;;;;2.58;0.60;;;;;;;19.30;56.83;99741.34;5151413;27;20045;-78
2022/05/26 10:05:37;;;;;;;2.72;0.45;;;;;;;18.97;57.47;99703.94;5146529;27;20150;-77
2022/05/26 10:08:14;;;;;;;0.70;0.30;;;;;;;19.47;59.04;99724.19;5145663;27;20053;-77
2022/05/26 10:10:46;;;;;;;3.45;0.60;;;;;;;19.47;55.41;99716.75;5142389;27;20050;-79
2022/05/26 10:13:28;;;;;;;2.05;0.52;;;;;;;19.76;58.46;99725.31;5145151;27;20042;-79
2022/05/26 10:16:04;;;;;;;1.35;0.50;;;;;;;19.90;55.43;99704.78;5148830;27;20057;-80
2022/05/26 10:18:56;;;;;;;1.92;0.68;;;;;;;19.70;54.02;99706.94;5152441;27;20054;-80
2022/05/26 10:21:35;;;;;;;3.75;0.82;;;;;;;20.01;54.43;99719.72;5148933;27;20141;-79
2022/05/26 10:24:35;;;;;;;1.40;0.60;;;;;;;20.11;54.17;99721.91;5144355;27;20087;-78
2022/05/26 10:27:16;;;;;;;1.55;0.63;;;;;;;20.48;55.83;99722.63;5085330;27;20039;-79
2022/05/26 10:30:19;;;;;;;2.55;0.70;;;;;;;20.59;52.71;99714.59;5142187;27;20047;-79
2022/05/26 10:33:01;;;;;;;1.50;0.55;;;;;;;20.82;54.27;99725.72;5136903;27;20047;-79
2022/05/26 10:35:38;;;;;;;2.15;0.80;;;;;;;20.67;54.33;99722.56;5140322;27;20478;-79
2022/05/26 10:38:26;;;;;;;1.33;0.52;;;;;;;20.61;52.31;99720.72;5146988;27;20050;-80
2022/05/26 10:41:02;;;;;;;0.60;0.35;;;;;;;20.77;53.69;99727.50;5141454;27;20042;-80
2022/05/26 10:43:39;;;;;;;9.07;0.77;;;;;;;20.21;52.24;99727.69;5138748;27;20059;-80
2022/05/26 10:46:09;;;;;;;1.73;0.68;;;;;;;19.85;54.47;99709.31;5138233;27;20054;-80
2022/05/26 10:48:37;;;;;;;;;;;;;;;20.08;55.12;99728.75;5147185;27;20477;-81
2022/05/26 10:51:11;;;;;;;4.90;0.75;;;;;;;20.14;56.80;99722.28;5151334;27;19923;-79
2022/05/26 10:53:46;;;;;;;2.72;0.70;;;;;;;19.81;54.68;99717.19;5138565;27;20043;-80
2022/05/26 10:56:23;;;;;;;4.55;0.75;;;;;;;20.11;54.03;99725.53;5150113;27;20074;-80
2022/05/26 10:58:54;;;;;;;1.63;0.75;;;;;;;20.21;54.43;99729.63;5150681;27;20050;-79
2022/05/26 11:01:34;;;;;;;3.42;0.85;;;;;;;20.00;56.18;99718.00;5151330;27;20046;-79
2022/05/26 11:04:12;;;;;;;2.47;0.60;;;;;;;20.33;54.44;99724.97;5149874;27;20046;-80
2022/05/26 11:06:42;;;;;;;2.33;0.52;;;;;;;20.80;54.49;99730.63;5149751;27;20532;-80
2022/05/26 11:09:16;;;;;;;3.25;0.88;;;;;;;20.56;53.30;99718.66;5146925;27;20051;-79
2022/05/26 11:11:47;;;;;;;3.97;0.70;;;;;;;20.59;55.21;99707.13;5146969;27;20382;-79
2022/05/26 11:17:23;;;;;;;4.05;0.90;;;;;;;20.43;53.69;99728.03;5138617;27;20135;-79
2022/05/26 11:19:54;;;;;;;2.35;0.68;;;;;;;20.76;56.74;99723.91;5143593;27;20049;-79
2022/05/26 11:22:20;;;;;;;4.28;0.80;;;;;;;20.42;55.27;99709.75;5136954;27;20051;-79
2022/05/26 11:24:48;;;;;;;2.53;0.90;;;;;;;20.31;55.52;99705.06;5133715;27;20050;-79
2022/05/26 11:27:22;;;;;;;1.75;0.68;;;;;;;19.82;55.03;99727.16;5144589;27;20518;-79
2022/05/26 11:29:52;;;;;;;4.80;0.90;;;;;;;19.60;56.51;99726.75;5150204;27;20076;-80
2022/05/26 11:38:02;;;;;;;1.77;0.80;;;;;;;19.43;58.70;99724.63;5141402;27;20685;-79
2022/05/26 11:40:37;;;;;;;2.05;1.40;;;;;;;19.25;59.35;99728.25;5147760;27;20050;-79
2022/05/26 11:43:07;;;;;;;7.45;0.80;;;;;;;19.37;59.44;99732.97;5139063;27;20054;-79
2022/05/26 11:45:38;;;;;;;3.35;0.80;;;;;;;19.69;58.43;99735.56;5131104;27;20485;-79
2022/05/26 12:21:49;;;;;;;3.50;0.82;;;;;;;20.09;56.47;99718.53;5142105;27;20489;-79
2022/05/26 12:24:59;;;;;;;1.65;0.70;;;;;;;20.60;55.99;99725.41;5144280;27;20079;-80
2022/05/26 12:37:59;;;;;;;4.18;0.90;;;;;;;20.15;59.11;99712.06;5149073;27;20079;-80
2022/05/26 12:40:47;;;;;;;1.88;0.80;;;;;;;20.03;58.09;99725.81;5150576;27;20047;-80
2022/05/26 12:43:40;;;;;;;3.90;0.80;;;;;;;19.90;57.84;99709.44;5142332;27;20096;-80
2022/05/26 12:46:37;;;;;;;1.85;0.95;;;;;;;20.28;59.49;99700.84;5124287;27;20050;-80
2022/05/26 12:49:13;;;;;;;2.72;0.65;;;;;;;20.58;59.61;99711.00;5150310;27;20228;-80
2022/05/26 12:51:40;;;;;;;3.63;1.02;;;;;;;20.68;56.72;99707.66;5147375;27;20055;-80
2022/05/26 12:54:14;;;;;;;2.72;0.80;;;;;;;20.57;57.90;99703.78;5146880;27;20114;-80
2022/05/26 12:56:50;;;;;;;4.32;0.80;;;;;;;20.85;56.39;99718.84;5147374;27;20050;-80
2022/05/26 12:59:23;;;;;;;1.80;0.95;;;;;;;20.74;57.14;99709.47;5138765;27;20050;-81
2022/05/26 13:01:50;;;;;;;2.38;0.90;;;;;;;20.59;57.06;99701.63;5150672;27;20054;-80
2022/05/26 13:04:20;;;;;;;1.48;0.65;;;;;;;20.85;56.22;99703.13;5151550;27;20426;-80
2022/05/26 13:06:50;;;;;;;5.82;0.65;;;;;;;20.65;54.01;99695.16;5147128;27;20057;-79
2022/05/26 13:09:21;;;;;;;;;;;;;;;20.75;54.60;99705.66;5153131;27;20058;-80
2022/05/26 13:11:52;;;;;;;1.60;0.68;;;;;;;21.07;53.67;99708.06;5153201;27;20053;-80
2022/05/26 13:14:31;;;;;;;2.08;0.70;;;;;;;20.80;55.17;99703.00;5150210;27;20074;-79
2022/05/26 13:16:59;;;;;;;4.43;1.40;;;;;;;20.32;58.71;99704.81;5136130;27;20059;-80
2022/05/26 13:19:27;;;;;;;1.92;0.98;;;;;;;19.93;55.75;99711.75;5132965;27;20452;-80
2022/05/26 13:21:55;;;;;;;3.85;0.60;;;;;;;19.58;57.81;99704.09;5131411;27;20100;-80
2022/05/26 13:24:27;;;;;;;3.22;0.90;;;;;;;19.38;58.00;99696.91;5121723;27;20039;-80
2022/05/26 13:26:56;;;;;;;0.90;0.50;;;;;;;19.48;60.13;99690.00;5152990;27;20053;-80
2022/05/26 13:29:23;;;;;;;2.20;0.73;;;;;;;19.43;59.22;99710.84;5152322;27;20134;-81
2022/05/26 13:34:44;;;;;;;0.93;0.75;;;;;;;19.26;59.23;99712.53;5146804;27;20199;-79
2022/05/26 13:37:17;;;;;;;2.60;0.60;;;;;;;19.44;61.86;99701.50;5152758;27;20077;-81
2022/05/26 13:39:45;;;;;;;2.15;0.73;;;;;;;19.29;60.56;99690.03;5150373;27;20047;-80
2022/05/26 13:42:14;;;;;;;1.02;0.60;;;;;;;19.76;58.95;99683.94;5151393;27;20062;-80
2022/05/26 13:44:44;;;;;;;3.88;0.85;;;;;;;19.85;56.17;99701.03;5151937;27;20035;-80
2022/05/26 13:47:13;;;;;;;1.50;0.70;;;;;;;20.26;58.05;99702.97;5148864;27;20524;-80